createdAt,value
2022-07-30T00:00:00.259Z,4.03
2022-07-30T00:03:02.440Z,3.97
2022-07-30T00:06:04.491Z,4.30
2022-07-30T00:09:06.302Z,6.03
2022-07-30T00:12:08.550Z,2.92
2022-07-30T00:15:10.784Z,2.75
2022-07-30T00:18:13.531Z,3.30
2022-07-30T00:21:20.305Z,2.65
2022-07-30T00:24:37.139Z,4.45
2022-07-30T00:27:40.107Z,2.90
2022-07-30T00:30:42.129Z,3.63
2022-07-30T00:33:44.463Z,2.53
2022-07-30T00:36:46.526Z,3.00
2022-07-30T00:39:48.374Z,2.10
2022-07-30T00:42:50.410Z,2.17
2022-07-30T00:45:52.510Z,2.30
2022-07-30T00:48:54.731Z,3.20
2022-07-30T00:51:57.083Z,2.90
2022-07-30T00:55:00.085Z,6.50
2022-07-30T00:58:02.902Z,4.28
2022-07-30T01:01:05.912Z,4.00
2022-07-30T01:04:11.999Z,3.50
2022-07-30T01:07:13.822Z,3.22
2022-07-30T01:10:16.455Z,3.75
2022-07-30T01:13:18.564Z,3.47
2022-07-30T01:16:21.022Z,3.28
2022-07-30T01:19:47.575Z,4.50
2022-07-30T01:23:05.547Z,5.50
2022-07-30T01:26:09.671Z,4.70
2022-07-30T01:29:13.678Z,2.20
2022-07-30T01:32:17.156Z,3.08
2022-07-30T01:35:21.082Z,2.30
2022-07-30T01:38:24.758Z,8.55
2022-07-30T01:41:27.267Z,3.72
2022-07-30T01:44:29.450Z,4.43
2022-07-30T01:47:31.468Z,3.78
2022-07-30T01:50:34.902Z,4.97
2022-07-30T01:53:38.246Z,2.88
2022-07-30T01:56:41.784Z,3.42
2022-07-30T01:59:46.311Z,2.92
2022-07-30T02:02:48.405Z,4.65
2022-07-30T02:05:55.105Z,5.80
2022-07-30T02:08:59.971Z,2.90
2022-07-30T02:12:25.496Z,3.85
2022-07-30T02:16:04.027Z,3.42
2022-07-30T02:19:14.041Z,3.38
2022-07-30T02:22:18.442Z,4.28
2022-07-30T02:25:21.866Z,3.38
2022-07-30T02:28:25.393Z,3.25
2022-07-30T02:31:28.571Z,3.92
2022-07-30T02:34:33.878Z,3.97
2022-07-30T02:37:43.276Z,4.50
2022-07-30T02:40:46.599Z,5.93
2022-07-30T02:43:50.197Z,4.55
2022-07-30T02:46:54.717Z,7.32
2022-07-30T02:50:08.199Z,4.47
2022-07-30T02:53:12.221Z,6.15
2022-07-30T02:56:18.994Z,4.47
2022-07-30T02:59:22.443Z,5.35
2022-07-30T03:02:29.038Z,4.65
2022-07-30T03:05:32.403Z,6.35
2022-07-30T03:08:35.591Z,7.10
2022-07-30T03:11:41.670Z,4.53
2022-07-30T03:14:43.631Z,6.40
2022-07-30T03:17:50.438Z,6.63
2022-07-30T03:20:55.575Z,4.07
2022-07-30T03:24:03.542Z,6.03
2022-07-30T03:27:07.279Z,4.22
2022-07-30T03:30:10.559Z,3.88
2022-07-30T03:33:13.220Z,4.57
2022-07-30T03:36:18.155Z,4.45
2022-07-30T03:39:21.001Z,4.82
2022-07-30T03:42:23.668Z,5.10
2022-07-30T03:45:25.810Z,4.15
2022-07-30T03:48:34.825Z,4.55
2022-07-30T03:51:37.701Z,7.50
2022-07-30T03:54:40.460Z,6.65
2022-07-30T03:58:07.813Z,6.32
2022-07-30T04:01:11.217Z,5.05
2022-07-30T04:04:13.412Z,5.22
2022-07-30T04:07:16.815Z,5.30
2022-07-30T04:10:19.233Z,4.35
2022-07-30T04:13:43.657Z,7.03
2022-07-30T04:17:04.397Z,5.43
2022-07-30T04:20:11.264Z,4.57
2022-07-30T04:23:18.033Z,5.05
2022-07-30T04:26:20.994Z,5.55
2022-07-30T04:29:25.276Z,5.60
2022-07-30T04:32:29.376Z,5.18
2022-07-30T04:35:51.609Z,5.15
2022-07-30T04:39:11.826Z,7.15
2022-07-30T04:42:13.929Z,4.32
2022-07-30T04:45:20.689Z,7.72
2022-07-30T04:48:29.376Z,5.93
2022-07-30T04:51:43.081Z,6.85
2022-07-30T04:54:50.381Z,8.48
2022-07-30T04:57:53.477Z,6.78
2022-07-30T05:00:56.983Z,5.38
2022-07-30T05:04:06.925Z,4.95
2022-07-30T05:07:14.686Z,7.70
2022-07-30T05:10:19.599Z,7.35
2022-07-30T05:13:22.275Z,6.00
2022-07-30T05:16:25.126Z,5.43
2022-07-30T05:19:30.719Z,5.80
2022-07-30T05:22:33.048Z,4.95
2022-07-30T05:25:35.885Z,6.35
2022-07-30T05:28:57.005Z,7.43
2022-07-30T05:32:20.269Z,5.43
2022-07-30T05:35:24.801Z,5.95
2022-07-30T05:38:36.053Z,6.05
2022-07-30T05:41:58.222Z,4.80
2022-07-30T05:45:02.956Z,5.30
2022-07-30T05:48:05.773Z,6.45
2022-07-30T05:51:07.783Z,7.15
2022-07-30T05:54:10.040Z,6.30
2022-07-30T05:57:44.143Z,4.63
2022-07-30T06:00:46.179Z,5.03
2022-07-30T06:03:48.711Z,4.25
2022-07-30T06:07:16.723Z,4.15
2022-07-30T06:10:19.034Z,6.65
2022-07-30T06:13:22.385Z,4.47
2022-07-30T06:16:24.351Z,5.38
2022-07-30T06:19:26.857Z,4.05
2022-07-30T06:22:28.955Z,3.13
2022-07-30T06:25:33.927Z,3.38
2022-07-30T06:28:38.104Z,4.63
2022-07-30T06:31:48.567Z,3.70
2022-07-30T06:35:07.150Z,4.40
2022-07-30T06:38:09.193Z,5.22
2022-07-30T06:41:28.521Z,5.20
2022-07-30T06:44:33.633Z,5.88
2022-07-30T06:47:39.813Z,6.35
2022-07-30T06:50:41.947Z,4.10
2022-07-30T06:53:46.050Z,4.90
2022-07-30T06:56:48.046Z,4.63
2022-07-30T06:59:56.139Z,4.65
2022-07-30T07:03:12.101Z,4.90
2022-07-30T07:06:14.265Z,3.67
2022-07-30T07:09:17.550Z,3.83
2022-07-30T07:12:25.998Z,6.60
2022-07-30T07:15:32.842Z,4.75
2022-07-30T07:18:40.950Z,4.68
2022-07-30T07:21:42.924Z,3.20
2022-07-30T07:24:44.953Z,5.25
2022-07-30T07:28:12.626Z,8.77
2022-07-30T07:32:06.081Z,4.28
2022-07-30T07:34:35.562Z,3.88
2022-07-30T07:37:37.649Z,4.72
2022-07-30T07:40:41.547Z,5.60
2022-07-30T07:43:44.146Z,5.55
2022-07-30T07:47:04.180Z,7.80
2022-07-30T07:53:19.153Z,3.88
2022-07-30T07:56:22.421Z,3.80
2022-07-30T07:59:27.759Z,5.38
2022-07-30T08:02:46.679Z,6.03
2022-07-30T08:06:01.224Z,7.03
2022-07-30T08:09:40.589Z,4.30
2022-07-30T08:12:53.563Z,4.10
2022-07-30T08:16:12.650Z,6.55
2022-07-30T08:19:33.464Z,6.43
2022-07-30T08:22:46.970Z,4.45
2022-07-30T08:25:50.817Z,5.85
2022-07-30T08:28:54.554Z,4.25
2022-07-30T08:31:57.348Z,3.38
2022-07-30T08:35:02.506Z,4.65
2022-07-30T08:38:05.697Z,6.00
2022-07-30T08:41:11.220Z,4.05
2022-07-30T08:44:13.549Z,5.13
2022-07-30T08:47:18.762Z,4.07
2022-07-30T08:50:44.985Z,5.43
2022-07-30T08:54:07.248Z,4.50
2022-07-30T08:57:10.343Z,4.68
2022-07-30T09:00:14.442Z,4.18
2022-07-30T09:03:16.831Z,6.95
2022-07-30T09:06:19.564Z,5.15
2022-07-30T09:09:21.567Z,5.13
2022-07-30T09:12:46.364Z,3.95
2022-07-30T09:15:48.759Z,4.32
2022-07-30T09:18:52.297Z,4.50
2022-07-30T09:22:02.074Z,4.00
2022-07-30T09:25:33.550Z,6.95
2022-07-30T09:28:53.905Z,4.25
2022-07-30T09:32:52.878Z,4.97
2022-07-30T09:36:16.187Z,4.38
2022-07-30T09:39:38.941Z,3.75
2022-07-30T09:43:08.837Z,4.88
2022-07-30T09:46:12.845Z,3.80
2022-07-30T09:49:17.261Z,4.47
2022-07-30T09:52:29.601Z,6.75
2022-07-30T09:55:36.127Z,5.75
2022-07-30T09:58:45.575Z,3.67
2022-07-30T10:01:55.000Z,3.38
2022-07-30T10:05:29.285Z,3.83
2022-07-30T10:08:40.606Z,3.70
2022-07-30T10:11:43.056Z,3.50
2022-07-30T10:14:47.221Z,3.60
2022-07-30T10:17:52.612Z,5.40
2022-07-30T10:21:05.348Z,6.38
2022-07-30T10:24:27.661Z,5.35
2022-07-30T10:27:48.941Z,3.58
2022-07-30T10:31:08.205Z,2.30
2022-07-30T10:34:26.200Z,2.67
2022-07-30T10:37:32.262Z,2.22
2022-07-30T10:40:39.616Z,2.30
2022-07-30T10:47:06.924Z,1.25
2022-07-30T10:50:15.754Z,1.35
2022-07-30T10:53:42.117Z,1.42
2022-07-30T10:57:05.115Z,1.10
2022-07-30T11:00:07.691Z,0.85
2022-07-30T11:03:14.849Z,0.93
2022-07-30T11:06:24.728Z,2.78
2022-07-30T11:09:41.761Z,1.05
2022-07-30T11:15:56.299Z,1.17
2022-07-30T11:19:55.047Z,0.93
2022-07-30T11:22:44.868Z,5.05
2022-07-30T11:25:50.081Z,1.20
2022-07-30T11:28:53.523Z,1.42
2022-07-30T11:32:00.114Z,3.63
2022-07-30T11:35:25.877Z,1.45
2022-07-30T11:38:55.336Z,1.42
2022-07-30T11:42:25.962Z,0.85
2022-07-30T11:45:30.151Z,4.57
2022-07-30T11:48:33.005Z,1.08
2022-07-30T11:51:43.234Z,3.42
2022-07-30T11:54:55.949Z,1.15
2022-07-30T11:57:59.677Z,0.70
2022-07-30T12:01:14.293Z,1.25
2022-07-30T12:04:16.491Z,2.03
2022-07-30T12:07:23.729Z,2.65
2022-07-30T12:10:27.118Z,1.85
2022-07-30T12:13:44.095Z,1.10
2022-07-30T12:16:55.471Z,1.38
2022-07-30T12:19:57.882Z,1.40
2022-07-30T12:23:00.409Z,2.58
2022-07-30T12:26:04.502Z,1.40
2022-07-30T12:29:13.386Z,1.50
2022-07-30T12:32:23.502Z,5.27
2022-07-30T12:35:45.431Z,1.60
2022-07-30T12:38:50.930Z,1.27
2022-07-30T12:41:56.696Z,1.85
2022-07-30T12:45:01.005Z,2.00
2022-07-30T12:51:15.473Z,1.27
2022-07-30T12:54:19.730Z,0.93
2022-07-30T12:57:24.825Z,1.35
2022-07-30T13:00:52.541Z,0.90
2022-07-30T13:07:11.935Z,1.30
2022-07-30T13:10:22.789Z,1.05
2022-07-30T13:13:31.867Z,2.53
2022-07-30T13:16:36.453Z,4.55
2022-07-30T13:19:40.851Z,0.73
2022-07-30T13:22:43.512Z,1.00
2022-07-30T13:25:47.327Z,2.50
2022-07-30T13:28:49.841Z,1.83
2022-07-30T13:31:52.984Z,0.90
2022-07-30T13:34:59.779Z,0.90
2022-07-30T13:38:03.653Z,1.15
2022-07-30T13:41:06.307Z,1.17
2022-07-30T13:44:08.529Z,1.00
2022-07-30T13:47:13.695Z,0.90
2022-07-30T13:50:16.555Z,0.82
2022-07-30T13:53:21.798Z,0.80
2022-07-30T13:56:26.172Z,0.80
2022-07-30T13:59:30.247Z,0.77
2022-07-30T14:02:32.161Z,0.60
2022-07-30T14:05:42.238Z,1.50
2022-07-30T14:08:48.140Z,0.75
2022-07-30T14:11:50.237Z,0.88
2022-07-30T14:14:52.461Z,0.90
2022-07-30T14:17:56.376Z,1.00
2022-07-30T14:20:58.675Z,0.88
2022-07-30T14:24:00.703Z,1.25
2022-07-30T14:27:02.954Z,1.20
2022-07-30T14:30:08.083Z,0.70
2022-07-30T14:33:11.211Z,1.35
2022-07-30T14:36:13.368Z,0.95
2022-07-30T14:39:15.181Z,0.80
2022-07-30T14:42:17.312Z,0.98
2022-07-30T14:45:19.359Z,1.17
2022-07-30T14:48:21.362Z,0.60
2022-07-30T14:51:26.788Z,0.55
2022-07-30T14:54:31.740Z,0.95
2022-07-30T14:57:37.050Z,0.50
2022-07-30T15:00:48.531Z,1.02
2022-07-30T15:03:51.092Z,0.80
2022-07-30T15:06:54.328Z,0.95
2022-07-30T15:09:56.904Z,0.95
2022-07-30T15:12:58.934Z,0.90
2022-07-30T15:16:01.023Z,1.17
2022-07-30T15:19:02.988Z,0.98
2022-07-30T15:22:05.699Z,0.65
2022-07-30T15:25:08.635Z,1.92
2022-07-30T15:28:10.665Z,0.90
2022-07-30T15:31:13.312Z,0.80
2022-07-30T15:34:15.444Z,1.05
2022-07-30T15:37:17.624Z,3.97
2022-07-30T15:40:19.780Z,1.13
2022-07-30T15:43:22.111Z,0.80
2022-07-30T15:46:24.274Z,1.20
2022-07-30T15:49:26.564Z,0.80
2022-07-30T15:52:28.952Z,1.38
2022-07-30T15:55:31.125Z,1.67
2022-07-30T15:58:49.268Z,0.98
2022-07-30T16:01:51.513Z,0.75
2022-07-30T16:04:53.979Z,1.27
2022-07-30T16:07:56.047Z,2.30
2022-07-30T16:10:58.746Z,1.27
2022-07-30T16:14:02.011Z,1.67
2022-07-30T16:17:04.332Z,1.10
2022-07-30T16:20:06.835Z,1.13
2022-07-30T16:23:13.951Z,1.38
2022-07-30T16:26:19.372Z,1.33
2022-07-30T16:29:21.495Z,0.80
2022-07-30T16:32:24.247Z,1.80
2022-07-30T16:35:26.355Z,1.58
2022-07-30T16:38:28.629Z,1.40
2022-07-30T16:41:30.802Z,8.25
2022-07-30T16:44:34.310Z,1.58
2022-07-30T16:47:36.519Z,1.00
2022-07-30T16:50:41.042Z,1.38
2022-07-30T16:53:43.317Z,1.40
2022-07-30T16:56:45.660Z,1.42
2022-07-30T16:59:47.607Z,1.98
2022-07-30T17:02:49.689Z,1.60
2022-07-30T17:05:52.403Z,1.40
2022-07-30T17:08:54.408Z,2.25
2022-07-30T17:11:56.476Z,2.05
2022-07-30T17:15:02.722Z,1.90
2022-07-30T17:18:05.287Z,2.88
2022-07-30T17:21:07.292Z,2.40
2022-07-30T17:24:13.855Z,1.83
2022-07-30T17:30:18.683Z,4.43
2022-07-30T17:33:20.935Z,2.10
2022-07-30T17:36:23.110Z,4.45
2022-07-30T17:40:24.792Z,2.13
2022-07-30T17:42:47.756Z,1.65
2022-07-30T17:45:50.299Z,1.50
2022-07-30T17:48:52.472Z,2.80
2022-07-30T17:51:54.657Z,2.33
2022-07-30T17:54:57.479Z,2.05
2022-07-30T17:57:59.602Z,3.15
2022-07-30T18:01:03.121Z,2.28
2022-07-30T18:04:05.448Z,2.30
2022-07-30T18:07:07.602Z,8.02
2022-07-30T18:10:10.407Z,2.97
2022-07-30T18:13:26.855Z,3.25
2022-07-30T18:16:37.158Z,2.72
2022-07-30T18:19:40.874Z,4.78
2022-07-30T18:22:45.580Z,4.22
2022-07-30T18:25:51.362Z,3.60
2022-07-30T18:28:55.682Z,4.65
2022-07-30T18:31:57.847Z,4.95
2022-07-30T18:35:00.105Z,4.50
2022-07-30T18:38:03.106Z,4.80
2022-07-30T18:41:08.125Z,5.95
2022-07-30T18:44:10.372Z,6.20
2022-07-30T18:47:12.592Z,5.18
2022-07-30T18:50:16.253Z,7.00
2022-07-30T18:53:18.578Z,5.13
2022-07-30T18:56:22.301Z,5.43
2022-07-30T18:59:24.495Z,5.15
2022-07-30T19:02:26.759Z,5.85
2022-07-30T19:05:29.785Z,5.18
2022-07-30T19:08:35.121Z,5.25
2022-07-30T19:11:37.276Z,6.57
2022-07-30T19:14:39.912Z,6.57
2022-07-30T19:17:46.010Z,7.00
2022-07-30T19:20:50.879Z,5.10
2022-07-30T19:23:52.933Z,6.07
2022-07-30T19:26:57.082Z,6.32
2022-07-30T19:29:59.473Z,6.85
2022-07-30T19:33:14.786Z,5.30
2022-07-30T19:36:20.914Z,4.73
2022-07-30T19:39:22.933Z,6.72
2022-07-30T19:42:28.917Z,5.47
2022-07-30T19:45:47.281Z,7.00
2022-07-30T19:48:50.660Z,8.90
2022-07-30T19:52:10.282Z,5.90
2022-07-30T19:55:17.156Z,7.05
2022-07-30T19:58:33.350Z,5.50
2022-07-30T20:01:41.108Z,6.13
2022-07-30T20:07:47.342Z,4.68
2022-07-30T20:10:51.441Z,5.10
2022-07-30T20:13:53.424Z,4.28
2022-07-30T20:16:58.142Z,5.32
2022-07-30T20:20:06.458Z,5.57
2022-07-30T20:23:09.372Z,5.65
2022-07-30T20:26:14.950Z,6.47
2022-07-30T20:29:19.414Z,4.25
2022-07-30T20:32:23.751Z,5.47
2022-07-30T20:35:26.830Z,5.15
2022-07-30T20:38:29.785Z,4.53
2022-07-30T20:41:32.221Z,5.38
2022-07-30T20:44:40.094Z,6.95
2022-07-30T20:47:47.033Z,4.63
2022-07-30T20:50:50.096Z,4.65
2022-07-30T20:53:52.565Z,4.47
2022-07-30T20:56:55.007Z,5.22
2022-07-30T20:59:57.221Z,5.78
2022-07-30T21:03:03.061Z,4.20
2022-07-30T21:06:07.011Z,4.13
2022-07-30T21:09:09.011Z,4.78
2022-07-30T21:12:14.646Z,5.50
2022-07-30T21:15:23.921Z,4.53
2022-07-30T21:18:29.168Z,6.70
2022-07-30T21:21:41.813Z,4.82
2022-07-30T21:24:50.164Z,7.57
2022-07-30T21:27:52.158Z,4.57
2022-07-30T21:30:57.154Z,5.50
2022-07-30T21:33:59.638Z,5.07
2022-07-30T21:37:02.289Z,3.63
2022-07-30T21:40:06.135Z,4.45
2022-07-30T21:43:08.206Z,3.30
2022-07-30T21:46:11.314Z,3.28
2022-07-30T21:49:13.298Z,4.00
2022-07-30T21:52:15.578Z,3.63
2022-07-30T21:55:17.895Z,3.95
2022-07-30T21:58:24.079Z,4.07
2022-07-30T22:01:29.671Z,4.25
2022-07-30T22:04:37.813Z,3.05
2022-07-30T22:07:39.740Z,6.22
2022-07-30T22:10:44.547Z,4.22
2022-07-30T22:13:51.417Z,2.42
2022-07-30T22:16:57.473Z,2.72
2022-07-30T22:19:59.623Z,2.85
2022-07-30T22:23:03.167Z,3.83
2022-07-30T22:26:06.613Z,2.90
2022-07-30T22:29:08.673Z,3.03
2022-07-30T22:32:14.224Z,2.17
2022-07-30T22:35:17.109Z,2.50
2022-07-30T22:38:23.089Z,1.93
2022-07-30T22:41:24.993Z,2.38
2022-07-30T22:44:27.322Z,2.05
2022-07-30T22:47:53.879Z,1.92
2022-07-30T22:50:53.247Z,1.83
2022-07-30T22:54:03.000Z,1.98
2022-07-30T22:57:17.779Z,1.50
2022-07-30T23:00:27.895Z,1.95
2022-07-30T23:03:32.826Z,2.88
2022-07-30T23:06:36.663Z,1.23
2022-07-30T23:09:51.793Z,1.48
2022-07-30T23:12:54.287Z,0.93
2022-07-30T23:15:56.437Z,1.23
2022-07-30T23:19:00.664Z,3.13
2022-07-30T23:22:02.472Z,0.70
2022-07-30T23:25:08.575Z,0.82
2022-07-30T23:28:10.697Z,0.80
2022-07-30T23:31:12.687Z,1.20
2022-07-30T23:34:14.513Z,0.68
2022-07-30T23:37:16.451Z,1.00
2022-07-30T23:40:18.881Z,1.17
2022-07-30T23:43:20.943Z,1.15
2022-07-30T23:46:22.966Z,0.90
2022-07-30T23:49:24.890Z,0.85
2022-07-30T23:52:26.760Z,0.85
2022-07-30T23:55:29.762Z,7.00
2022-07-30T23:58:31.560Z,0.85
